Anthony, Kansas
Current Conditions -  °F | °C
As of 2:10 PM on Monday 24 Nov 2014 (Local Time) from KAVK Reporting Station
Clear Clear  
Wind Chill: 55°   Ceiling: Unl
Heat Index: 55°   Visibility: 10mi
Dew Point: 16°   Wind: 21mph
Humidity: 21%   Direction: 300°WNW
Pressure: 29.95"   Gusts: 25mph
Location:  37.15°N, 98.03°W
Report Text: KAVK 242010Z AUTO 30018G22KT 10SM CLR 13/M09 A2995 RMK AO2
Loading
Personal Weather Stations






























Interactive Weather Map New forecast layout! Learn more

10-Day Weather Forecast

Advertisements
Track Severe Weather on mobile